Terminal Aerodrome Forecast
Issued by NWS

Home | Current Version | Previous Version | Text Only | Print | Product List | Glossary On
Versions: 1 2 3 4 5 6 7 8 9 10 11 12 13 14 15 16 17 18 19 20 21 22 23 24 25 26 27 28 29 30 31 32 33 34
000
FTUS43 KDTX 151720
TAFDET
TAF
KDET 151720Z 1518/1618 22013G20KT P6SM OVC025
      TEMPO 1520/1524 3SM SHRA BR OVC015
     FM160200 VRB05KT 6SM -SHRA BR OVC015
     FM160600 04006KT P6SM BKN015 OVC018
     FM161300 05016KT P6SM VCSH OVC025=

USA.gov is the U.S. government's official web portal to all federal, state and local government web resources and services.